sensor_id;sensor_type;location;lat;lon;timestamp;temperature;humidity
52187;DHT22;38161;53.020;6.598;2022-10-26T00:01:28;9.80;99.90
52187;DHT22;38161;53.020;6.598;2022-10-26T00:03:55;9.80;99.90
52187;DHT22;38161;53.020;6.598;2022-10-26T00:06:23;9.80;99.90
52187;DHT22;38161;53.020;6.598;2022-10-26T00:08:55;9.80;99.90
52187;DHT22;38161;53.020;6.598;2022-10-26T00:11:21;9.80;99.90
52187;DHT22;38161;53.020;6.598;2022-10-26T00:13:47;9.80;99.90
52187;DHT22;38161;53.020;6.598;2022-10-26T00:16:22;9.80;99.90
52187;DHT22;38161;53.020;6.598;2022-10-26T00:18:48;9.80;99.90
52187;DHT22;38161;53.020;6.598;2022-10-26T00:21:15;9.80;99.90
52187;DHT22;38161;53.020;6.598;2022-10-26T00:23:41;9.80;99.90
52187;DHT22;38161;53.020;6.598;2022-10-26T00:26:07;9.70;99.90
52187;DHT22;38161;53.020;6.598;2022-10-26T00:28:33;9.70;99.90
52187;DHT22;38161;53.020;6.598;2022-10-26T00:31:01;9.80;99.90
52187;DHT22;38161;53.020;6.598;2022-10-26T00:33:27;9.70;99.90
52187;DHT22;38161;53.020;6.598;2022-10-26T00:35:54;9.70;99.90
52187;DHT22;38161;53.020;6.598;2022-10-26T00:38:20;9.80;99.90
52187;DHT22;38161;53.020;6.598;2022-10-26T00:40:46;9.70;99.90
52187;DHT22;38161;53.020;6.598;2022-10-26T00:43:36;9.70;99.90
52187;DHT22;38161;53.020;6.598;2022-10-26T00:46:05;9.70;99.90
52187;DHT22;38161;53.020;6.598;2022-10-26T00:48:34;9.70;99.90
52187;DHT22;38161;53.020;6.598;2022-10-26T00:51:06;9.70;99.90
52187;DHT22;38161;53.020;6.598;2022-10-26T00:53:33;9.70;99.90
52187;DHT22;38161;53.020;6.598;2022-10-26T00:56:00;9.60;99.90
52187;DHT22;38161;53.020;6.598;2022-10-26T00:58:26;9.60;99.90
52187;DHT22;38161;53.020;6.598;2022-10-26T01:00:52;9.60;99.90
52187;DHT22;38161;53.020;6.598;2022-10-26T01:03:18;9.50;99.90
52187;DHT22;38161;53.020;6.598;2022-10-26T01:05:45;9.50;99.90
52187;DHT22;38161;53.020;6.598;2022-10-26T01:08:13;9.50;99.90
52187;DHT22;38161;53.020;6.598;2022-10-26T01:10:41;9.50;99.90
52187;DHT22;38161;53.020;6.598;2022-10-26T01:13:07;9.50;99.90
52187;DHT22;38161;53.020;6.598;2022-10-26T01:18:46;9.40;99.90
52187;DHT22;38161;53.020;6.598;2022-10-26T01:21:38;9.40;99.90
52187;DHT22;38161;53.020;6.598;2022-10-26T01:24:34;9.40;99.90
52187;DHT22;38161;53.020;6.598;2022-10-26T01:35:53;9.30;99.90
52187;DHT22;38161;53.020;6.598;2022-10-26T01:38:33;9.30;99.90
52187;DHT22;38161;53.020;6.598;2022-10-26T01:41:20;9.20;99.90
52187;DHT22;38161;53.020;6.598;2022-10-26T01:43:57;9.20;99.90
52187;DHT22;38161;53.020;6.598;2022-10-26T01:46:25;9.20;99.90
52187;DHT22;38161;53.020;6.598;2022-10-26T01:48:54;9.20;99.90
52187;DHT22;38161;53.020;6.598;2022-10-26T01:51:22;9.20;99.90
52187;DHT22;38161;53.020;6.598;2022-10-26T01:53:49;9.20;99.90
52187;DHT22;38161;53.020;6.598;2022-10-26T01:56:24;9.20;99.90
52187;DHT22;38161;53.020;6.598;2022-10-26T01:59:16;9.20;99.90
52187;DHT22;38161;53.020;6.598;2022-10-26T02:07:21;9.30;99.90
52187;DHT22;38161;53.020;6.598;2022-10-26T02:09:56;9.30;99.90
52187;DHT22;38161;53.020;6.598;2022-10-26T02:12:42;9.30;99.90
52187;DHT22;38161;53.020;6.598;2022-10-26T02:18:18;9.30;99.90
52187;DHT22;38161;53.020;6.598;2022-10-26T02:20:49;9.30;99.90
52187;DHT22;38161;53.020;6.598;2022-10-26T02:23:16;9.30;99.90
52187;DHT22;38161;53.020;6.598;2022-10-26T02:25:48;9.20;99.90
52187;DHT22;38161;53.020;6.598;2022-10-26T02:28:18;9.30;99.90
52187;DHT22;38161;53.020;6.598;2022-10-26T02:30:49;9.30;99.90
52187;DHT22;38161;53.020;6.598;2022-10-26T02:33:17;9.30;99.90
52187;DHT22;38161;53.020;6.598;2022-10-26T02:35:46;9.30;99.90
52187;DHT22;38161;53.020;6.598;2022-10-26T02:38:13;9.30;99.90
52187;DHT22;38161;53.020;6.598;2022-10-26T02:40:41;9.20;99.90
52187;DHT22;38161;53.020;6.598;2022-10-26T02:43:16;9.20;99.90
52187;DHT22;38161;53.020;6.598;2022-10-26T02:48:46;9.20;99.90
52187;DHT22;38161;53.020;6.598;2022-10-26T02:54:29;9.20;99.90
52187;DHT22;38161;53.020;6.598;2022-10-26T02:57:18;9.10;99.90
52187;DHT22;38161;53.020;6.598;2022-10-26T02:59:45;9.10;99.90
52187;DHT22;38161;53.020;6.598;2022-10-26T03:02:16;9.10;99.90
52187;DHT22;38161;53.020;6.598;2022-10-26T03:04:43;9.10;99.90
52187;DHT22;38161;53.020;6.598;2022-10-26T03:07:09;9.10;99.90
52187;DHT22;38161;53.020;6.598;2022-10-26T03:09:34;9.10;99.90
52187;DHT22;38161;53.020;6.598;2022-10-26T03:12:00;9.10;99.90
52187;DHT22;38161;53.020;6.598;2022-10-26T03:14:26;9.10;99.90
52187;DHT22;38161;53.020;6.598;2022-10-26T03:16:52;9.00;99.90
52187;DHT22;38161;53.020;6.598;2022-10-26T03:19:17;9.00;99.90
52187;DHT22;38161;53.020;6.598;2022-10-26T03:21:43;9.00;99.90
52187;DHT22;38161;53.020;6.598;2022-10-26T03:24:09;9.00;99.90
52187;DHT22;38161;53.020;6.598;2022-10-26T03:26:35;9.00;99.90
52187;DHT22;38161;53.020;6.598;2022-10-26T03:29:00;9.00;99.90
52187;DHT22;38161;53.020;6.598;2022-10-26T03:31:26;9.00;99.90
52187;DHT22;38161;53.020;6.598;2022-10-26T03:33:52;9.00;99.90
52187;DHT22;38161;53.020;6.598;2022-10-26T03:36:17;9.10;99.90
52187;DHT22;38161;53.020;6.598;2022-10-26T03:38:43;9.00;99.90
52187;DHT22;38161;53.020;6.598;2022-10-26T03:41:09;9.10;99.90
52187;DHT22;38161;53.020;6.598;2022-10-26T03:43:34;9.10;99.90
52187;DHT22;38161;53.020;6.598;2022-10-26T03:46:00;9.10;99.90
52187;DHT22;38161;53.020;6.598;2022-10-26T03:48:26;9.10;99.90
52187;DHT22;38161;53.020;6.598;2022-10-26T03:50:51;9.10;99.90
52187;DHT22;38161;53.020;6.598;2022-10-26T03:53:21;9.10;99.90
52187;DHT22;38161;53.020;6.598;2022-10-26T03:55:47;9.10;99.90
52187;DHT22;38161;53.020;6.598;2022-10-26T03:58:12;9.10;99.90
52187;DHT22;38161;53.020;6.598;2022-10-26T04:00:38;9.20;99.90
52187;DHT22;38161;53.020;6.598;2022-10-26T04:03:04;9.20;99.90
52187;DHT22;38161;53.020;6.598;2022-10-26T04:05:29;9.20;99.90
52187;DHT22;38161;53.020;6.598;2022-10-26T04:07:57;9.10;99.90
52187;DHT22;38161;53.020;6.598;2022-10-26T04:10:24;9.10;99.90
52187;DHT22;38161;53.020;6.598;2022-10-26T04:12:51;9.10;99.90
52187;DHT22;38161;53.020;6.598;2022-10-26T04:15:17;9.10;99.90
52187;DHT22;38161;53.020;6.598;2022-10-26T04:17:43;9.10;99.90
52187;DHT22;38161;53.020;6.598;2022-10-26T04:20:09;9.10;99.90
52187;DHT22;38161;53.020;6.598;2022-10-26T04:22:35;9.10;99.90
52187;DHT22;38161;53.020;6.598;2022-10-26T04:25:04;9.10;99.90
52187;DHT22;38161;53.020;6.598;2022-10-26T04:27:30;9.00;99.90
52187;DHT22;38161;53.020;6.598;2022-10-26T04:29:56;9.10;99.90
52187;DHT22;38161;53.020;6.598;2022-10-26T04:32:22;9.10;99.90
52187;DHT22;38161;53.020;6.598;2022-10-26T04:34:47;9.00;99.90
52187;DHT22;38161;53.020;6.598;2022-10-26T04:37:13;9.10;99.90
52187;DHT22;38161;53.020;6.598;2022-10-26T04:39:39;9.10;99.90
52187;DHT22;38161;53.020;6.598;2022-10-26T04:42:04;9.10;99.90
52187;DHT22;38161;53.020;6.598;2022-10-26T04:44:30;9.10;99.90
52187;DHT22;38161;53.020;6.598;2022-10-26T04:46:56;9.10;99.90
52187;DHT22;38161;53.020;6.598;2022-10-26T04:49:22;9.10;99.90
52187;DHT22;38161;53.020;6.598;2022-10-26T04:51:47;9.20;99.90
52187;DHT22;38161;53.020;6.598;2022-10-26T04:54:13;9.20;99.90
52187;DHT22;38161;53.020;6.598;2022-10-26T04:56:39;9.20;99.90
52187;DHT22;38161;53.020;6.598;2022-10-26T04:59:05;9.30;99.90
52187;DHT22;38161;53.020;6.598;2022-10-26T05:01:31;9.30;99.90
52187;DHT22;38161;53.020;6.598;2022-10-26T05:03:56;9.30;99.90
52187;DHT22;38161;53.020;6.598;2022-10-26T05:06:22;9.30;99.90
52187;DHT22;38161;53.020;6.598;2022-10-26T05:08:48;9.40;99.90
52187;DHT22;38161;53.020;6.598;2022-10-26T05:11:14;9.40;99.90
52187;DHT22;38161;53.020;6.598;2022-10-26T05:13:40;9.40;99.90
52187;DHT22;38161;53.020;6.598;2022-10-26T05:16:06;9.40;99.90
52187;DHT22;38161;53.020;6.598;2022-10-26T05:18:32;9.40;99.90
52187;DHT22;38161;53.020;6.598;2022-10-26T05:20:57;9.40;99.90
52187;DHT22;38161;53.020;6.598;2022-10-26T05:23:23;9.50;99.90
52187;DHT22;38161;53.020;6.598;2022-10-26T05:25:49;9.50;99.90
52187;DHT22;38161;53.020;6.598;2022-10-26T05:28:16;9.50;99.90
52187;DHT22;38161;53.020;6.598;2022-10-26T05:30:42;9.50;99.90
52187;DHT22;38161;53.020;6.598;2022-10-26T05:33:10;9.50;99.90
52187;DHT22;38161;53.020;6.598;2022-10-26T05:35:36;9.50;99.90
52187;DHT22;38161;53.020;6.598;2022-10-26T05:38:22;9.60;99.90
52187;DHT22;38161;53.020;6.598;2022-10-26T05:40:51;9.60;99.90
52187;DHT22;38161;53.020;6.598;2022-10-26T05:43:19;9.60;99.90
52187;DHT22;38161;53.020;6.598;2022-10-26T05:45:45;9.60;99.90
52187;DHT22;38161;53.020;6.598;2022-10-26T05:48:11;9.70;99.90
52187;DHT22;38161;53.020;6.598;2022-10-26T05:50:37;9.70;99.90
52187;DHT22;38161;53.020;6.598;2022-10-26T05:53:03;9.70;99.90
52187;DHT22;38161;53.020;6.598;2022-10-26T05:55:29;9.70;99.90
52187;DHT22;38161;53.020;6.598;2022-10-26T05:57:55;9.70;99.90
52187;DHT22;38161;53.020;6.598;2022-10-26T06:00:24;9.80;99.90
52187;DHT22;38161;53.020;6.598;2022-10-26T06:03:13;9.80;99.90
52187;DHT22;38161;53.020;6.598;2022-10-26T06:05:54;9.80;99.90
52187;DHT22;38161;53.020;6.598;2022-10-26T06:08:22;9.80;99.90
52187;DHT22;38161;53.020;6.598;2022-10-26T06:10:48;9.80;99.90
52187;DHT22;38161;53.020;6.598;2022-10-26T06:13:14;9.80;99.90
52187;DHT22;38161;53.020;6.598;2022-10-26T06:16:20;9.80;99.90
52187;DHT22;38161;53.020;6.598;2022-10-26T06:30:09;9.90;99.90
52187;DHT22;38161;53.020;6.598;2022-10-26T06:32:37;9.90;99.90
52187;DHT22;38161;53.020;6.598;2022-10-26T06:38:01;9.90;99.90
52187;DHT22;38161;53.020;6.598;2022-10-26T06:40:30;10.00;99.90
52187;DHT22;38161;53.020;6.598;2022-10-26T06:42:57;10.00;99.90
52187;DHT22;38161;53.020;6.598;2022-10-26T06:45:23;10.00;99.90
52187;DHT22;38161;53.020;6.598;2022-10-26T06:50:41;10.00;99.90
52187;DHT22;38161;53.020;6.598;2022-10-26T06:53:38;10.00;99.90
52187;DHT22;38161;53.020;6.598;2022-10-26T06:56:06;10.10;99.90
52187;DHT22;38161;53.020;6.598;2022-10-26T06:58:36;10.10;99.90
52187;DHT22;38161;53.020;6.598;2022-10-26T07:01:03;10.10;99.90
52187;DHT22;38161;53.020;6.598;2022-10-26T07:03:29;10.10;99.90
52187;DHT22;38161;53.020;6.598;2022-10-26T07:05:54;10.10;99.90
52187;DHT22;38161;53.020;6.598;2022-10-26T07:08:20;10.20;99.90
52187;DHT22;38161;53.020;6.598;2022-10-26T07:10:46;10.20;99.90
52187;DHT22;38161;53.020;6.598;2022-10-26T07:13:12;10.20;99.90
52187;DHT22;38161;53.020;6.598;2022-10-26T07:15:38;10.30;99.90
52187;DHT22;38161;53.020;6.598;2022-10-26T07:18:04;10.30;99.90
52187;DHT22;38161;53.020;6.598;2022-10-26T07:20:32;10.30;99.90
52187;DHT22;38161;53.020;6.598;2022-10-26T07:23:00;10.40;99.90
52187;DHT22;38161;53.020;6.598;2022-10-26T07:25:26;10.40;99.90
52187;DHT22;38161;53.020;6.598;2022-10-26T07:27:58;10.50;99.90
52187;DHT22;38161;53.020;6.598;2022-10-26T07:30:25;10.50;99.90
52187;DHT22;38161;53.020;6.598;2022-10-26T07:33:01;10.60;99.90
52187;DHT22;38161;53.020;6.598;2022-10-26T07:35:27;10.60;99.90
52187;DHT22;38161;53.020;6.598;2022-10-26T07:37:57;10.70;99.90
52187;DHT22;38161;53.020;6.598;2022-10-26T07:40:23;10.70;99.90
52187;DHT22;38161;53.020;6.598;2022-10-26T07:42:49;10.80;99.90
52187;DHT22;38161;53.020;6.598;2022-10-26T07:45:14;10.80;99.90
52187;DHT22;38161;53.020;6.598;2022-10-26T07:47:40;10.80;99.90
52187;DHT22;38161;53.020;6.598;2022-10-26T07:50:06;10.90;99.90
52187;DHT22;38161;53.020;6.598;2022-10-26T07:52:32;10.90;99.90
52187;DHT22;38161;53.020;6.598;2022-10-26T07:55:00;11.00;99.90
52187;DHT22;38161;53.020;6.598;2022-10-26T07:57:26;11.00;99.90
52187;DHT22;38161;53.020;6.598;2022-10-26T07:59:51;11.00;99.90
52187;DHT22;38161;53.020;6.598;2022-10-26T08:02:17;11.10;99.90
52187;DHT22;38161;53.020;6.598;2022-10-26T08:04:43;11.10;99.90
52187;DHT22;38161;53.020;6.598;2022-10-26T08:07:09;11.20;99.90
52187;DHT22;38161;53.020;6.598;2022-10-26T08:09:34;11.20;99.90
52187;DHT22;38161;53.020;6.598;2022-10-26T08:12:00;11.30;99.90
52187;DHT22;38161;53.020;6.598;2022-10-26T08:14:26;11.40;99.90
52187;DHT22;38161;53.020;6.598;2022-10-26T08:16:52;11.40;99.90
52187;DHT22;38161;53.020;6.598;2022-10-26T08:19:18;11.50;99.90
52187;DHT22;38161;53.020;6.598;2022-10-26T08:21:44;11.50;99.90
52187;DHT22;38161;53.020;6.598;2022-10-26T08:24:09;11.60;99.90
52187;DHT22;38161;53.020;6.598;2022-10-26T08:26:35;11.50;99.90
52187;DHT22;38161;53.020;6.598;2022-10-26T08:29:01;11.60;99.90
52187;DHT22;38161;53.020;6.598;2022-10-26T08:31:27;11.60;99.90
52187;DHT22;38161;53.020;6.598;2022-10-26T08:33:52;11.60;99.90
52187;DHT22;38161;53.020;6.598;2022-10-26T08:36:26;11.60;99.90
52187;DHT22;38161;53.020;6.598;2022-10-26T08:38:52;11.70;99.90
52187;DHT22;38161;53.020;6.598;2022-10-26T08:41:33;11.70;99.90
52187;DHT22;38161;53.020;6.598;2022-10-26T08:44:06;11.80;99.90
52187;DHT22;38161;53.020;6.598;2022-10-26T08:46:43;11.80;99.90
52187;DHT22;38161;53.020;6.598;2022-10-26T08:49:23;11.80;99.90
52187;DHT22;38161;53.020;6.598;2022-10-26T08:51:52;11.90;99.90
52187;DHT22;38161;53.020;6.598;2022-10-26T08:54:38;12.00;99.90
52187;DHT22;38161;53.020;6.598;2022-10-26T08:59:46;12.20;99.90
52187;DHT22;38161;53.020;6.598;2022-10-26T09:02:15;12.40;99.90
52187;DHT22;38161;53.020;6.598;2022-10-26T09:04:41;12.50;99.90
52187;DHT22;38161;53.020;6.598;2022-10-26T09:07:24;12.60;99.90
52187;DHT22;38161;53.020;6.598;2022-10-26T09:20:48;13.20;99.90
52187;DHT22;38161;53.020;6.598;2022-10-26T09:23:31;13.30;99.90
52187;DHT22;38161;53.020;6.598;2022-10-26T09:26:10;13.50;99.90
52187;DHT22;38161;53.020;6.598;2022-10-26T09:28:40;13.70;99.90
52187;DHT22;38161;53.020;6.598;2022-10-26T09:31:12;13.90;99.90
52187;DHT22;38161;53.020;6.598;2022-10-26T09:33:39;14.10;99.90
52187;DHT22;38161;53.020;6.598;2022-10-26T09:36:12;14.20;99.90
52187;DHT22;38161;53.020;6.598;2022-10-26T09:39:03;14.30;99.90
52187;DHT22;38161;53.020;6.598;2022-10-26T09:41:37;14.40;99.90
52187;DHT22;38161;53.020;6.598;2022-10-26T09:44:32;14.60;99.90
52187;DHT22;38161;53.020;6.598;2022-10-26T09:52:42;15.30;99.90
52187;DHT22;38161;53.020;6.598;2022-10-26T09:55:14;15.30;99.90
52187;DHT22;38161;53.020;6.598;2022-10-26T09:57:47;15.30;99.90
52187;DHT22;38161;53.020;6.598;2022-10-26T10:00:16;15.30;99.90
52187;DHT22;38161;53.020;6.598;2022-10-26T10:02:46;15.20;99.90
52187;DHT22;38161;53.020;6.598;2022-10-26T10:07:50;15.10;99.90
52187;DHT22;38161;53.020;6.598;2022-10-26T10:10:18;15.20;99.90
52187;DHT22;38161;53.020;6.598;2022-10-26T10:12:46;15.30;99.90
52187;DHT22;38161;53.020;6.598;2022-10-26T10:15:24;15.40;99.90
52187;DHT22;38161;53.020;6.598;2022-10-26T10:17:51;15.40;99.90
52187;DHT22;38161;53.020;6.598;2022-10-26T10:20:24;15.50;99.90
52187;DHT22;38161;53.020;6.598;2022-10-26T10:23:01;15.50;99.90
52187;DHT22;38161;53.020;6.598;2022-10-26T10:25:35;15.70;99.90
52187;DHT22;38161;53.020;6.598;2022-10-26T10:28:21;15.80;99.90
52187;DHT22;38161;53.020;6.598;2022-10-26T10:31:02;15.90;99.90
52187;DHT22;38161;53.020;6.598;2022-10-26T10:33:40;16.00;99.90
52187;DHT22;38161;53.020;6.598;2022-10-26T10:36:10;16.20;99.90
52187;DHT22;38161;53.020;6.598;2022-10-26T10:38:43;16.20;99.90
52187;DHT22;38161;53.020;6.598;2022-10-26T10:41:26;16.20;99.90
52187;DHT22;38161;53.020;6.598;2022-10-26T10:44:06;16.20;99.90
52187;DHT22;38161;53.020;6.598;2022-10-26T10:46:34;16.10;99.90
52187;DHT22;38161;53.020;6.598;2022-10-26T10:49:02;16.10;99.90
52187;DHT22;38161;53.020;6.598;2022-10-26T10:51:37;16.10;99.90
52187;DHT22;38161;53.020;6.598;2022-10-26T10:54:05;16.10;99.90
52187;DHT22;38161;53.020;6.598;2022-10-26T10:56:33;16.10;99.90
52187;DHT22;38161;53.020;6.598;2022-10-26T11:07:52;16.40;99.90
52187;DHT22;38161;53.020;6.598;2022-10-26T11:10:21;16.70;99.90
52187;DHT22;38161;53.020;6.598;2022-10-26T11:12:58;16.80;99.90
52187;DHT22;38161;53.020;6.598;2022-10-26T11:15:27;17.00;99.90
52187;DHT22;38161;53.020;6.598;2022-10-26T11:18:02;17.00;99.90
52187;DHT22;38161;53.020;6.598;2022-10-26T11:20:35;17.20;99.90
52187;DHT22;38161;53.020;6.598;2022-10-26T11:25:35;17.40;99.90
52187;DHT22;38161;53.020;6.598;2022-10-26T11:30:45;17.50;99.90
52187;DHT22;38161;53.020;6.598;2022-10-26T11:33:27;17.60;99.90
52187;DHT22;38161;53.020;6.598;2022-10-26T11:36:06;17.60;99.90
52187;DHT22;38161;53.020;6.598;2022-10-26T11:41:29;17.60;99.90
52187;DHT22;38161;53.020;6.598;2022-10-26T11:44:10;17.60;99.90
52187;DHT22;38161;53.020;6.598;2022-10-26T11:46:42;17.60;99.90
52187;DHT22;38161;53.020;6.598;2022-10-26T11:49:26;17.70;99.90
52187;DHT22;38161;53.020;6.598;2022-10-26T11:52:32;17.80;99.90
52187;DHT22;38161;53.020;6.598;2022-10-26T11:55:00;17.90;99.90
52187;DHT22;38161;53.020;6.598;2022-10-26T11:57:31;18.00;99.90
52187;DHT22;38161;53.020;6.598;2022-10-26T12:00:04;18.00;99.90
52187;DHT22;38161;53.020;6.598;2022-10-26T12:02:31;18.10;99.90
52187;DHT22;38161;53.020;6.598;2022-10-26T12:05:21;18.20;99.90
52187;DHT22;38161;53.020;6.598;2022-10-26T12:07:53;18.30;99.90
52187;DHT22;38161;53.020;6.598;2022-10-26T12:13:09;18.30;99.90
52187;DHT22;38161;53.020;6.598;2022-10-26T12:15:49;18.30;99.90
52187;DHT22;38161;53.020;6.598;2022-10-26T12:20:56;18.20;99.90
52187;DHT22;38161;53.020;6.598;2022-10-26T12:23:31;18.10;99.90
52187;DHT22;38161;53.020;6.598;2022-10-26T12:29:02;18.00;99.90
52187;DHT22;38161;53.020;6.598;2022-10-26T12:34:13;18.10;99.90
52187;DHT22;38161;53.020;6.598;2022-10-26T12:39:39;18.20;99.90
52187;DHT22;38161;53.020;6.598;2022-10-26T13:00:23;17.90;99.90
52187;DHT22;38161;53.020;6.598;2022-10-26T13:08:41;17.90;99.90
52187;DHT22;38161;53.020;6.598;2022-10-26T13:13:57;18.00;99.90
52187;DHT22;38161;53.020;6.598;2022-10-26T13:16:25;18.00;99.90
52187;DHT22;38161;53.020;6.598;2022-10-26T13:18:52;18.00;99.90
52187;DHT22;38161;53.020;6.598;2022-10-26T13:21:19;17.90;99.90
52187;DHT22;38161;53.020;6.598;2022-10-26T13:26:26;17.80;99.90
52187;DHT22;38161;53.020;6.598;2022-10-26T13:28:57;17.80;99.90
52187;DHT22;38161;53.020;6.598;2022-10-26T13:34:14;17.70;99.90
52187;DHT22;38161;53.020;6.598;2022-10-26T13:39:22;17.70;99.90
52187;DHT22;38161;53.020;6.598;2022-10-26T13:41:50;17.70;99.90
52187;DHT22;38161;53.020;6.598;2022-10-26T13:44:34;17.60;99.90
52187;DHT22;38161;53.020;6.598;2022-10-26T13:50:13;17.60;99.90
52187;DHT22;38161;53.020;6.598;2022-10-26T13:52:42;17.50;99.90
52187;DHT22;38161;53.020;6.598;2022-10-26T13:55:35;17.50;99.90
52187;DHT22;38161;53.020;6.598;2022-10-26T14:03:29;17.40;99.90
52187;DHT22;38161;53.020;6.598;2022-10-26T14:05:55;17.40;99.90
52187;DHT22;38161;53.020;6.598;2022-10-26T14:08:21;17.40;99.90
52187;DHT22;38161;53.020;6.598;2022-10-26T14:10:52;17.40;99.90
52187;DHT22;38161;53.020;6.598;2022-10-26T14:13:22;17.30;99.90
52187;DHT22;38161;53.020;6.598;2022-10-26T14:15:52;17.30;99.90
52187;DHT22;38161;53.020;6.598;2022-10-26T14:18:24;17.30;99.90
52187;DHT22;38161;53.020;6.598;2022-10-26T14:21:05;17.30;99.90
52187;DHT22;38161;53.020;6.598;2022-10-26T14:23:59;17.30;99.90
52187;DHT22;38161;53.020;6.598;2022-10-26T14:26:40;17.20;99.90
52187;DHT22;38161;53.020;6.598;2022-10-26T14:29:18;17.20;99.90
52187;DHT22;38161;53.020;6.598;2022-10-26T14:31:45;17.20;99.90
52187;DHT22;38161;53.020;6.598;2022-10-26T14:34:12;17.20;99.90
52187;DHT22;38161;53.020;6.598;2022-10-26T14:36:59;17.20;99.90
52187;DHT22;38161;53.020;6.598;2022-10-26T14:39:38;17.10;99.90
52187;DHT22;38161;53.020;6.598;2022-10-26T14:44:43;17.10;99.90
52187;DHT22;38161;53.020;6.598;2022-10-26T14:47:19;17.10;99.90
52187;DHT22;38161;53.020;6.598;2022-10-26T14:49:47;17.00;99.90
52187;DHT22;38161;53.020;6.598;2022-10-26T14:52:28;17.00;99.90
52187;DHT22;38161;53.020;6.598;2022-10-26T14:55:02;17.00;99.90
52187;DHT22;38161;53.020;6.598;2022-10-26T14:57:34;16.90;99.90
52187;DHT22;38161;53.020;6.598;2022-10-26T15:00:21;16.90;99.90
52187;DHT22;38161;53.020;6.598;2022-10-26T15:02:57;16.90;99.90
52187;DHT22;38161;53.020;6.598;2022-10-26T15:07:52;16.80;99.90
52187;DHT22;38161;53.020;6.598;2022-10-26T15:15:47;16.70;99.90
52187;DHT22;38161;53.020;6.598;2022-10-26T15:18:19;16.70;99.90
52187;DHT22;38161;53.020;6.598;2022-10-26T15:20:47;16.70;99.90
52187;DHT22;38161;53.020;6.598;2022-10-26T15:23:14;16.70;99.90
52187;DHT22;38161;53.020;6.598;2022-10-26T15:25:58;16.70;99.90
52187;DHT22;38161;53.020;6.598;2022-10-26T15:28:40;16.60;99.90
52187;DHT22;38161;53.020;6.598;2022-10-26T15:33:37;16.60;99.90
52187;DHT22;38161;53.020;6.598;2022-10-26T15:38:36;16.60;99.90
52187;DHT22;38161;53.020;6.598;2022-10-26T15:41:14;16.60;99.90
52187;DHT22;38161;53.020;6.598;2022-10-26T15:43:41;16.60;99.90
52187;DHT22;38161;53.020;6.598;2022-10-26T15:46:07;16.60;99.90
52187;DHT22;38161;53.020;6.598;2022-10-26T15:48:32;16.60;99.90
52187;DHT22;38161;53.020;6.598;2022-10-26T15:51:00;16.60;99.90
52187;DHT22;38161;53.020;6.598;2022-10-26T15:53:26;16.50;99.90
52187;DHT22;38161;53.020;6.598;2022-10-26T15:55:54;16.50;99.90
52187;DHT22;38161;53.020;6.598;2022-10-26T15:58:21;16.50;99.90
52187;DHT22;38161;53.020;6.598;2022-10-26T16:00:47;16.50;99.90
52187;DHT22;38161;53.020;6.598;2022-10-26T16:03:17;16.40;99.90
52187;DHT22;38161;53.020;6.598;2022-10-26T16:05:43;16.40;99.90
52187;DHT22;38161;53.020;6.598;2022-10-26T16:08:14;16.40;99.90
52187;DHT22;38161;53.020;6.598;2022-10-26T16:10:41;16.40;99.90
52187;DHT22;38161;53.020;6.598;2022-10-26T16:13:16;16.40;99.90
52187;DHT22;38161;53.020;6.598;2022-10-26T16:15:42;16.40;99.90
52187;DHT22;38161;53.020;6.598;2022-10-26T16:18:08;16.30;99.90
52187;DHT22;38161;53.020;6.598;2022-10-26T16:20:34;16.30;99.90
52187;DHT22;38161;53.020;6.598;2022-10-26T16:23:00;16.30;99.90
52187;DHT22;38161;53.020;6.598;2022-10-26T16:25:39;16.30;99.90
52187;DHT22;38161;53.020;6.598;2022-10-26T16:28:04;16.30;99.90
52187;DHT22;38161;53.020;6.598;2022-10-26T16:30:30;16.20;99.90
52187;DHT22;38161;53.020;6.598;2022-10-26T16:32:56;16.20;99.90
52187;DHT22;38161;53.020;6.598;2022-10-26T16:35:22;16.20;99.90
52187;DHT22;38161;53.020;6.598;2022-10-26T16:37:48;16.20;99.90
52187;DHT22;38161;53.020;6.598;2022-10-26T16:40:13;16.20;99.90
52187;DHT22;38161;53.020;6.598;2022-10-26T16:42:39;16.20;99.90
52187;DHT22;38161;53.020;6.598;2022-10-26T16:45:12;16.20;99.90
52187;DHT22;38161;53.020;6.598;2022-10-26T16:47:38;16.20;99.90
52187;DHT22;38161;53.020;6.598;2022-10-26T16:50:06;16.20;99.90
52187;DHT22;38161;53.020;6.598;2022-10-26T16:52:33;16.10;99.90
52187;DHT22;38161;53.020;6.598;2022-10-26T16:54:59;16.10;99.90
52187;DHT22;38161;53.020;6.598;2022-10-26T16:57:25;16.20;99.90
52187;DHT22;38161;53.020;6.598;2022-10-26T16:59:50;16.10;99.90
52187;DHT22;38161;53.020;6.598;2022-10-26T17:02:16;16.10;99.90
52187;DHT22;38161;53.020;6.598;2022-10-26T17:04:42;16.10;99.90
52187;DHT22;38161;53.020;6.598;2022-10-26T17:07:09;16.10;99.90
52187;DHT22;38161;53.020;6.598;2022-10-26T17:09:35;16.10;99.90
52187;DHT22;38161;53.020;6.598;2022-10-26T17:12:01;16.10;99.90
52187;DHT22;38161;53.020;6.598;2022-10-26T17:14:26;16.00;99.90
52187;DHT22;38161;53.020;6.598;2022-10-26T17:16:52;16.00;99.90
52187;DHT22;38161;53.020;6.598;2022-10-26T17:19:17;16.00;99.90
52187;DHT22;38161;53.020;6.598;2022-10-26T17:21:43;16.00;99.90
52187;DHT22;38161;53.020;6.598;2022-10-26T17:24:10;16.00;99.90
52187;DHT22;38161;53.020;6.598;2022-10-26T17:26:36;15.90;99.90
52187;DHT22;38161;53.020;6.598;2022-10-26T17:29:02;15.90;99.90
52187;DHT22;38161;53.020;6.598;2022-10-26T17:31:28;15.90;99.90
52187;DHT22;38161;53.020;6.598;2022-10-26T17:33:55;15.80;99.90
52187;DHT22;38161;53.020;6.598;2022-10-26T17:36:22;15.80;99.90
52187;DHT22;38161;53.020;6.598;2022-10-26T17:38:50;15.80;99.90
52187;DHT22;38161;53.020;6.598;2022-10-26T17:41:18;15.70;99.90
52187;DHT22;38161;53.020;6.598;2022-10-26T17:43:45;15.70;99.90
52187;DHT22;38161;53.020;6.598;2022-10-26T17:46:17;15.70;99.90
52187;DHT22;38161;53.020;6.598;2022-10-26T17:48:43;15.70;99.90
52187;DHT22;38161;53.020;6.598;2022-10-26T17:51:18;15.70;99.90
52187;DHT22;38161;53.020;6.598;2022-10-26T17:53:48;15.60;99.90
52187;DHT22;38161;53.020;6.598;2022-10-26T17:56:16;15.60;99.90
52187;DHT22;38161;53.020;6.598;2022-10-26T17:58:42;15.60;99.90
52187;DHT22;38161;53.020;6.598;2022-10-26T18:01:10;15.60;99.90
52187;DHT22;38161;53.020;6.598;2022-10-26T18:03:37;15.60;99.90
52187;DHT22;38161;53.020;6.598;2022-10-26T18:06:04;15.60;99.90
52187;DHT22;38161;53.020;6.598;2022-10-26T18:08:33;15.60;99.90
52187;DHT22;38161;53.020;6.598;2022-10-26T18:10:59;15.60;99.90
52187;DHT22;38161;53.020;6.598;2022-10-26T18:13:30;15.60;99.90
52187;DHT22;38161;53.020;6.598;2022-10-26T18:16:06;15.60;99.90
52187;DHT22;38161;53.020;6.598;2022-10-26T18:18:32;15.50;99.90
52187;DHT22;38161;53.020;6.598;2022-10-26T18:21:03;15.50;99.90
52187;DHT22;38161;53.020;6.598;2022-10-26T18:23:29;15.50;99.90
52187;DHT22;38161;53.020;6.598;2022-10-26T18:28:31;15.50;99.90
52187;DHT22;38161;53.020;6.598;2022-10-26T18:31:05;15.50;99.90
52187;DHT22;38161;53.020;6.598;2022-10-26T18:33:32;15.40;99.90